Aérodrome :
LOGIN :

S'inscrire | Disclaimer

   EN    FR    IT 

 










Légende :    VFR   VFR Marginal   IFR   IFR Intensif   IFR Très Intensif
Visi : 
Plafond : 
>= 8 km
>= 3000ft
5 à 8 km
1000 à 3000 ft
1500m à 5 km
500 à 1000 ft
800 à 1500m
200 à 500 ft
< 800m
< 200 ft
Symboles :   Orages  Brouillard  Fortes neiges  Fortes précipitations  Vent > 20 kt
SIGMETs :   Divers  Orages  Givrage  Turbulence  Onde Orograph.  Cendres Volcan.






- Altitude de l'aérodrome : 20 ft


EBFN - Koksijde

DERNIER METAR :
  • 230255Z AUTO 06006KT 2100 BR OVC100/// 10/10 Q1019 YLO

METARs EXPIRÉS :
  • 230225Z AUTO 08004KT 1600 BR OVC100/// 10/10 Q1020 YLO
  • 230155Z AUTO 04005KT 2400 BR OVC110/// 10/09 Q1020 YLO
  • 230125Z AUTO 04003KT 3000 BR OVC120/// 09/09 Q1020 YLO
  • 230055Z AUTO 06003KT 3000 BR OVC120/// 09/09 Q1021 YLO
  • 230025Z AUTO 06003KT 2400 BR OVC120/// 09/09 Q1021 YLO

TAF TAF EBFN
Valide du 22 à 19h jusqu'au 23 à 07h UTC


221541Z 2219/2307 28006KT 9999 FEW025 BKN120
TEMPO 2219/2223 VRB03KT SCT022 BKN120
BECMG 2301/2303 09004KT 4000 BR BKN080
TEMPO 2302/2307 VRB03KT 3000 -RA SCT015 BKN070
PROB30 2302/307 1500 BR SCT012 BKN060



MET'MAP, la Météo Aéronautique d'un coup d'oeil ! - Copyright ORBIFLY Décembre 2007 - Disclaimer

ORBIFLY MET'MAP TEAM :

Programmation & Développement : Alexandra Zaïnal
Conception & Développement : Baudouin d'Aumeries
Co-Programmation & Développement : Marc-Olivier Méhu
Soutien technique & logistique : Manuel Goepfert

Contact : metmap@orbifly.com




SOURCES & CREDITS :

   NOAA